Mullinville, Kansas
Current Conditions -  °F | °C
As of 11:52 PM on Saturday 20 Dec 2014 (Local Time) from KDDC Reporting Station
Haze Haze  
Wind Chill: 25°   Ceiling: Unl
Heat Index: 34°   Visibility: 5mi
Dew Point: 31°   Wind: 12mph
Humidity: 89%   Direction: 180°S
Pressure: 29.98"   Gusts: NA
Location:  37.59°N, 99.48°W
Report Text: KDDC 210552Z AUTO 18010KT 5SM BR CLR 01/M01 A2998 RMK AO2 SLP166 I6000 T00111006 10017 21006 400611011 56009
Loading
Personal Weather Stations






























Interactive Weather Map New forecast layout! Learn more

10-Day Weather Forecast

Advertisements
Track Severe Weather on mobile